Etna, WY (83118)

9:02 PM MDT on September 15, 2014 (GMT -0600)
One Mile South of | Change Station
CLOSE
Current Station
Personal Weather Station
Location: Alpine, WY
Elevation: 5650 ft
Nearby Weather Stations

Elev 5650 ft 43.16 °N, 111.03 °W | Updated 5 seconds ago

Clear
Clear
55.1 °F
Feels Like 55.1 °F
N
0.0
Wind Variable Wind from WSW
Gusts 0.0 mph

Today
High -- | Low -- °F
--% Chance of Precip.
Yesterday
High -- | Low -- °F
Precip. -- in
7:03 AM 7:33 PM
Waning Gibbous, 50% visible
Pressure 30.23 in
Visibility 10.0 miles
Clouds Clear
Dew Point 38 °F
Humidity 52%
Rainfall 0.00 in
Snow Depth 0 in , 0 in , 0 in
UV 0.0 out of 12
Pollen 6.50 out of 12
Air Quality Not available.
Flu Activity Not available.
METAR KAFO 160255Z AUTO 00000KT 10SM CLR 12/02 A3023 RMK AO2

More Conditions Fewer Conditions

Pressure 30.23 in
Visibility 10.0 miles
Clouds Clear
Dew Point 38 °F
Humidity 52%
Rainfall 0.00 in
Snow Depth 0 in , 0 in , 0 in
UV 0.0 out of 12
Pollen 6.50 out of 12
Air Quality Not available.
Flu Activity Not available.
METAR KAFO 160255Z AUTO 00000KT 10SM CLR 12/02 A3023 RMK AO2

More Conditions Fewer Conditions

10-Day Weather Forecast

Almanac

Astronomy

Sep. 15, 2014 Rise Set
Actual Time 7:03 AM MDT 7:33 PM MDT
Civil Twilight 6:35 AM MDT 8:02 PM MDT
Nautical Twilight 6:01 AM MDT 8:35 PM MDT
Astronomical Twilight 5:26 AM MDT 9:10 PM MDT
Moon No Moon Rise 2:16 PM MDT (9/15)
Length of Visible Light 13h 27m
Length of Day
12h 30m
Tomorrow will be 2m 54s shorter.
Waning Gibbous, 50% of the Moon is Illuminated
Today
Waning Gibbous
Sep 24
New
Oct 1
First Quarter
Oct 8
Full
Oct 15
Last Quarter

Today's Extremes

State Highs State Lows

Community

WunderPhotos

Upload Photos

1,753,689 photos uploaded!

Nearby

Snow Depth

Station Depth Elevation
Thumb Divide 0 in 7980 ft
Kelley R.S. 0 in 8180 ft
Loomis Park 0 in 8240 ft
Brooklyn Lake 0 in 10220 ft
Gunsight Pass 2 in 9820 ft

Earthquake Activity

City Distance Mag. Time & Date
No recent earthquake activity has been reported nearby.
Minimum magnitude displayed is 2.5.

Coastal Water Temperatures

Place Temperature
No Stations Reporting

Nearby Weather Stations